sensor_id;sensor_type;location;lat;lon;timestamp;P1;durP1;ratioP1;P2;durP2;ratioP2
12171;SDS011;6149;52.418;13.668;2022-12-24T00:01:29;23.10;;;12.30;;
12171;SDS011;6149;52.418;13.668;2022-12-24T00:03:57;21.83;;;12.53;;
12171;SDS011;6149;52.418;13.668;2022-12-24T00:06:23;21.67;;;12.00;;
12171;SDS011;6149;52.418;13.668;2022-12-24T00:08:50;19.77;;;12.07;;
12171;SDS011;6149;52.418;13.668;2022-12-24T00:11:17;18.00;;;11.40;;
12171;SDS011;6149;52.418;13.668;2022-12-24T00:13:45;21.73;;;12.93;;
12171;SDS011;6149;52.418;13.668;2022-12-24T00:16:12;21.57;;;11.23;;
12171;SDS011;6149;52.418;13.668;2022-12-24T00:18:39;17.17;;;11.30;;
12171;SDS011;6149;52.418;13.668;2022-12-24T00:21:06;18.80;;;12.17;;
12171;SDS011;6149;52.418;13.668;2022-12-24T00:23:33;17.33;;;10.73;;
12171;SDS011;6149;52.418;13.668;2022-12-24T00:26:00;17.80;;;11.57;;
12171;SDS011;6149;52.418;13.668;2022-12-24T00:28:27;20.07;;;10.90;;
12171;SDS011;6149;52.418;13.668;2022-12-24T00:30:55;15.77;;;10.23;;
12171;SDS011;6149;52.418;13.668;2022-12-24T00:33:21;18.60;;;10.83;;
12171;SDS011;6149;52.418;13.668;2022-12-24T00:35:49;15.70;;;10.60;;
12171;SDS011;6149;52.418;13.668;2022-12-24T00:38:16;15.27;;;9.53;;
12171;SDS011;6149;52.418;13.668;2022-12-24T00:40:43;14.63;;;10.03;;
12171;SDS011;6149;52.418;13.668;2022-12-24T00:43:10;17.83;;;10.83;;
12171;SDS011;6149;52.418;13.668;2022-12-24T00:45:37;14.50;;;9.30;;
12171;SDS011;6149;52.418;13.668;2022-12-24T00:48:05;13.13;;;9.80;;
12171;SDS011;6149;52.418;13.668;2022-12-24T00:50:32;13.77;;;9.07;;
12171;SDS011;6149;52.418;13.668;2022-12-24T00:52:59;14.43;;;10.00;;
12171;SDS011;6149;52.418;13.668;2022-12-24T00:55:25;15.83;;;9.30;;
12171;SDS011;6149;52.418;13.668;2022-12-24T00:57:52;15.87;;;10.30;;
12171;SDS011;6149;52.418;13.668;2022-12-24T01:00:19;15.80;;;9.90;;
12171;SDS011;6149;52.418;13.668;2022-12-24T01:02:46;13.17;;;8.87;;
12171;SDS011;6149;52.418;13.668;2022-12-24T01:05:14;10.93;;;8.63;;
12171;SDS011;6149;52.418;13.668;2022-12-24T01:07:44;13.37;;;9.10;;
12171;SDS011;6149;52.418;13.668;2022-12-24T01:10:13;16.30;;;9.17;;
12171;SDS011;6149;52.418;13.668;2022-12-24T01:12:42;13.73;;;9.40;;
12171;SDS011;6149;52.418;13.668;2022-12-24T01:15:10;14.83;;;9.20;;
12171;SDS011;6149;52.418;13.668;2022-12-24T01:17:38;12.40;;;8.67;;
12171;SDS011;6149;52.418;13.668;2022-12-24T01:20:06;13.13;;;8.80;;
12171;SDS011;6149;52.418;13.668;2022-12-24T01:22:39;12.23;;;8.77;;
12171;SDS011;6149;52.418;13.668;2022-12-24T01:25:06;13.50;;;8.70;;
12171;SDS011;6149;52.418;13.668;2022-12-24T01:27:35;13.00;;;9.10;;
12171;SDS011;6149;52.418;13.668;2022-12-24T01:30:02;16.33;;;9.53;;
12171;SDS011;6149;52.418;13.668;2022-12-24T01:32:32;14.43;;;9.53;;
12171;SDS011;6149;52.418;13.668;2022-12-24T01:34:59;15.30;;;10.00;;
12171;SDS011;6149;52.418;13.668;2022-12-24T01:37:26;16.73;;;10.23;;
12171;SDS011;6149;52.418;13.668;2022-12-24T01:39:55;15.50;;;9.70;;
12171;SDS011;6149;52.418;13.668;2022-12-24T01:42:43;15.27;;;10.70;;
12171;SDS011;6149;52.418;13.668;2022-12-24T01:45:38;14.83;;;10.30;;
12171;SDS011;6149;52.418;13.668;2022-12-24T01:48:12;19.07;;;11.13;;
12171;SDS011;6149;52.418;13.668;2022-12-24T01:50:45;18.13;;;10.53;;
12171;SDS011;6149;52.418;13.668;2022-12-24T01:53:13;14.10;;;9.90;;
12171;SDS011;6149;52.418;13.668;2022-12-24T01:55:42;16.47;;;10.60;;
12171;SDS011;6149;52.418;13.668;2022-12-24T01:58:11;18.57;;;11.40;;
12171;SDS011;6149;52.418;13.668;2022-12-24T02:00:40;17.20;;;10.97;;
12171;SDS011;6149;52.418;13.668;2022-12-24T02:03:06;17.87;;;10.97;;
12171;SDS011;6149;52.418;13.668;2022-12-24T02:05:34;16.43;;;11.03;;
12171;SDS011;6149;52.418;13.668;2022-12-24T02:08:07;15.53;;;11.07;;
12171;SDS011;6149;52.418;13.668;2022-12-24T02:10:35;19.13;;;11.73;;
12171;SDS011;6149;52.418;13.668;2022-12-24T02:13:03;17.43;;;11.77;;
12171;SDS011;6149;52.418;13.668;2022-12-24T02:15:33;16.37;;;11.30;;
12171;SDS011;6149;52.418;13.668;2022-12-24T02:18:18;19.30;;;11.97;;
12171;SDS011;6149;52.418;13.668;2022-12-24T02:21:00;18.27;;;12.20;;
12171;SDS011;6149;52.418;13.668;2022-12-24T02:27:20;20.13;;;11.93;;
12171;SDS011;6149;52.418;13.668;2022-12-24T02:30:00;18.73;;;12.83;;
12171;SDS011;6149;52.418;13.668;2022-12-24T02:32:38;19.47;;;13.23;;
12171;SDS011;6149;52.418;13.668;2022-12-24T02:35:31;21.03;;;13.60;;
12171;SDS011;6149;52.418;13.668;2022-12-24T02:38:05;19.70;;;12.73;;
12171;SDS011;6149;52.418;13.668;2022-12-24T02:40:40;18.83;;;12.63;;
12171;SDS011;6149;52.418;13.668;2022-12-24T02:43:12;20.97;;;13.43;;
12171;SDS011;6149;52.418;13.668;2022-12-24T02:45:47;21.20;;;13.67;;
12171;SDS011;6149;52.418;13.668;2022-12-24T02:48:18;20.10;;;13.27;;
12171;SDS011;6149;52.418;13.668;2022-12-24T02:51:00;20.50;;;14.10;;
12171;SDS011;6149;52.418;13.668;2022-12-24T02:53:32;19.40;;;13.87;;
12171;SDS011;6149;52.418;13.668;2022-12-24T02:58:58;20.13;;;13.30;;
12171;SDS011;6149;52.418;13.668;2022-12-24T03:01:44;20.10;;;13.43;;
12171;SDS011;6149;52.418;13.668;2022-12-24T03:04:21;26.90;;;16.00;;
12171;SDS011;6149;52.418;13.668;2022-12-24T03:07:11;26.17;;;14.63;;
12171;SDS011;6149;52.418;13.668;2022-12-24T03:09:49;23.87;;;15.20;;
12171;SDS011;6149;52.418;13.668;2022-12-24T03:12:25;20.50;;;12.90;;
12171;SDS011;6149;52.418;13.668;2022-12-24T03:14:57;22.40;;;14.93;;
12171;SDS011;6149;52.418;13.668;2022-12-24T03:17:26;24.30;;;15.83;;
12171;SDS011;6149;52.418;13.668;2022-12-24T03:19:55;23.53;;;14.97;;
12171;SDS011;6149;52.418;13.668;2022-12-24T03:22:21;22.13;;;14.40;;
12171;SDS011;6149;52.418;13.668;2022-12-24T03:24:51;27.73;;;16.17;;
12171;SDS011;6149;52.418;13.668;2022-12-24T03:27:18;25.37;;;16.17;;
12171;SDS011;6149;52.418;13.668;2022-12-24T03:29:45;23.77;;;14.73;;
12171;SDS011;6149;52.418;13.668;2022-12-24T03:32:12;25.07;;;14.97;;
12171;SDS011;6149;52.418;13.668;2022-12-24T03:34:40;29.13;;;16.93;;
12171;SDS011;6149;52.418;13.668;2022-12-24T03:37:07;25.70;;;16.40;;
12171;SDS011;6149;52.418;13.668;2022-12-24T03:39:34;28.03;;;16.73;;
12171;SDS011;6149;52.418;13.668;2022-12-24T03:42:00;27.77;;;16.57;;
12171;SDS011;6149;52.418;13.668;2022-12-24T03:44:27;29.10;;;16.93;;
12171;SDS011;6149;52.418;13.668;2022-12-24T03:46:54;29.03;;;17.23;;
12171;SDS011;6149;52.418;13.668;2022-12-24T03:49:21;28.17;;;17.57;;
12171;SDS011;6149;52.418;13.668;2022-12-24T03:51:49;28.37;;;16.87;;
12171;SDS011;6149;52.418;13.668;2022-12-24T03:54:16;31.33;;;17.63;;
12171;SDS011;6149;52.418;13.668;2022-12-24T03:56:43;29.60;;;16.93;;
12171;SDS011;6149;52.418;13.668;2022-12-24T03:59:09;32.07;;;17.50;;
12171;SDS011;6149;52.418;13.668;2022-12-24T04:01:36;28.77;;;18.30;;
12171;SDS011;6149;52.418;13.668;2022-12-24T04:04:03;32.87;;;17.53;;
12171;SDS011;6149;52.418;13.668;2022-12-24T04:06:29;29.07;;;17.47;;
12171;SDS011;6149;52.418;13.668;2022-12-24T04:08:58;28.47;;;16.87;;
12171;SDS011;6149;52.418;13.668;2022-12-24T04:11:29;32.33;;;18.77;;
12171;SDS011;6149;52.418;13.668;2022-12-24T04:13:56;28.17;;;17.07;;
12171;SDS011;6149;52.418;13.668;2022-12-24T04:16:23;33.17;;;18.27;;
12171;SDS011;6149;52.418;13.668;2022-12-24T04:18:50;25.97;;;16.00;;
12171;SDS011;6149;52.418;13.668;2022-12-24T04:21:17;26.57;;;16.87;;
12171;SDS011;6149;52.418;13.668;2022-12-24T04:23:44;31.27;;;17.97;;
12171;SDS011;6149;52.418;13.668;2022-12-24T04:26:13;25.33;;;17.40;;
12171;SDS011;6149;52.418;13.668;2022-12-24T04:28:40;28.00;;;16.50;;
12171;SDS011;6149;52.418;13.668;2022-12-24T04:31:09;30.60;;;17.63;;
12171;SDS011;6149;52.418;13.668;2022-12-24T04:33:38;29.17;;;17.23;;
12171;SDS011;6149;52.418;13.668;2022-12-24T04:36:05;30.93;;;16.43;;
12171;SDS011;6149;52.418;13.668;2022-12-24T04:38:33;25.53;;;15.77;;
12171;SDS011;6149;52.418;13.668;2022-12-24T04:41:01;32.47;;;17.27;;
12171;SDS011;6149;52.418;13.668;2022-12-24T04:43:32;30.50;;;17.63;;
12171;SDS011;6149;52.418;13.668;2022-12-24T04:46:03;23.40;;;15.60;;
12171;SDS011;6149;52.418;13.668;2022-12-24T04:48:31;24.27;;;15.40;;
12171;SDS011;6149;52.418;13.668;2022-12-24T04:50:59;20.77;;;13.67;;
12171;SDS011;6149;52.418;13.668;2022-12-24T04:53:27;25.47;;;15.63;;
12171;SDS011;6149;52.418;13.668;2022-12-24T04:55:53;21.30;;;14.00;;
12171;SDS011;6149;52.418;13.668;2022-12-24T04:58:20;27.30;;;15.57;;
12171;SDS011;6149;52.418;13.668;2022-12-24T05:00:48;22.97;;;14.47;;
12171;SDS011;6149;52.418;13.668;2022-12-24T05:03:15;26.17;;;16.27;;
12171;SDS011;6149;52.418;13.668;2022-12-24T05:05:41;22.50;;;13.80;;
12171;SDS011;6149;52.418;13.668;2022-12-24T05:08:08;20.57;;;13.20;;
12171;SDS011;6149;52.418;13.668;2022-12-24T05:10:35;23.10;;;13.67;;
12171;SDS011;6149;52.418;13.668;2022-12-24T05:13:05;25.63;;;14.97;;
12171;SDS011;6149;52.418;13.668;2022-12-24T05:15:32;23.10;;;14.37;;
12171;SDS011;6149;52.418;13.668;2022-12-24T05:18:00;25.00;;;15.50;;
12171;SDS011;6149;52.418;13.668;2022-12-24T05:20:27;22.77;;;14.57;;
12171;SDS011;6149;52.418;13.668;2022-12-24T05:22:53;20.40;;;12.93;;
12171;SDS011;6149;52.418;13.668;2022-12-24T05:25:37;24.27;;;14.00;;
12171;SDS011;6149;52.418;13.668;2022-12-24T05:28:22;20.47;;;13.20;;
12171;SDS011;6149;52.418;13.668;2022-12-24T05:30:49;23.63;;;13.63;;
12171;SDS011;6149;52.418;13.668;2022-12-24T05:33:17;27.03;;;14.13;;
12171;SDS011;6149;52.418;13.668;2022-12-24T05:35:43;16.50;;;11.50;;
12171;SDS011;6149;52.418;13.668;2022-12-24T05:38:10;20.17;;;13.20;;
12171;SDS011;6149;52.418;13.668;2022-12-24T05:40:37;18.63;;;12.13;;
12171;SDS011;6149;52.418;13.668;2022-12-24T05:43:03;15.77;;;11.47;;
12171;SDS011;6149;52.418;13.668;2022-12-24T05:45:30;17.80;;;11.70;;
12171;SDS011;6149;52.418;13.668;2022-12-24T05:47:57;21.30;;;13.33;;
12171;SDS011;6149;52.418;13.668;2022-12-24T05:50:25;18.80;;;12.33;;
12171;SDS011;6149;52.418;13.668;2022-12-24T05:52:52;19.57;;;12.77;;
12171;SDS011;6149;52.418;13.668;2022-12-24T05:55:19;20.63;;;13.03;;
12171;SDS011;6149;52.418;13.668;2022-12-24T05:57:45;20.07;;;12.27;;
12171;SDS011;6149;52.418;13.668;2022-12-24T06:00:12;19.47;;;11.97;;
12171;SDS011;6149;52.418;13.668;2022-12-24T06:02:40;17.83;;;11.00;;
12171;SDS011;6149;52.418;13.668;2022-12-24T06:05:07;15.83;;;11.43;;
12171;SDS011;6149;52.418;13.668;2022-12-24T06:07:36;22.13;;;12.73;;
12171;SDS011;6149;52.418;13.668;2022-12-24T06:10:04;20.00;;;12.33;;
12171;SDS011;6149;52.418;13.668;2022-12-24T06:12:32;16.17;;;11.67;;
12171;SDS011;6149;52.418;13.668;2022-12-24T06:14:59;17.80;;;11.33;;
12171;SDS011;6149;52.418;13.668;2022-12-24T06:17:26;21.20;;;12.07;;
12171;SDS011;6149;52.418;13.668;2022-12-24T06:19:52;18.43;;;11.07;;
12171;SDS011;6149;52.418;13.668;2022-12-24T06:22:19;18.83;;;12.47;;
12171;SDS011;6149;52.418;13.668;2022-12-24T06:24:48;22.03;;;13.50;;
12171;SDS011;6149;52.418;13.668;2022-12-24T06:27:15;21.40;;;12.87;;
12171;SDS011;6149;52.418;13.668;2022-12-24T06:29:41;19.33;;;12.27;;
12171;SDS011;6149;52.418;13.668;2022-12-24T06:32:08;20.20;;;11.80;;
12171;SDS011;6149;52.418;13.668;2022-12-24T06:34:35;17.70;;;10.60;;
12171;SDS011;6149;52.418;13.668;2022-12-24T06:37:01;18.83;;;12.53;;
12171;SDS011;6149;52.418;13.668;2022-12-24T06:39:28;16.77;;;10.70;;
12171;SDS011;6149;52.418;13.668;2022-12-24T06:41:57;18.13;;;11.83;;
12171;SDS011;6149;52.418;13.668;2022-12-24T06:44:23;20.73;;;12.63;;
12171;SDS011;6149;52.418;13.668;2022-12-24T06:46:50;21.20;;;13.03;;
12171;SDS011;6149;52.418;13.668;2022-12-24T06:49:17;22.43;;;12.80;;
12171;SDS011;6149;52.418;13.668;2022-12-24T06:51:44;22.67;;;12.63;;
12171;SDS011;6149;52.418;13.668;2022-12-24T06:54:11;18.97;;;12.23;;
12171;SDS011;6149;52.418;13.668;2022-12-24T06:56:38;20.17;;;13.23;;
12171;SDS011;6149;52.418;13.668;2022-12-24T06:59:06;21.80;;;13.00;;
12171;SDS011;6149;52.418;13.668;2022-12-24T07:01:32;18.83;;;12.27;;
12171;SDS011;6149;52.418;13.668;2022-12-24T07:03:59;17.97;;;11.53;;
12171;SDS011;6149;52.418;13.668;2022-12-24T07:06:27;18.77;;;12.67;;
12171;SDS011;6149;52.418;13.668;2022-12-24T07:08:55;18.77;;;12.20;;
12171;SDS011;6149;52.418;13.668;2022-12-24T07:11:22;20.20;;;12.50;;
12171;SDS011;6149;52.418;13.668;2022-12-24T07:13:50;17.20;;;10.83;;
12171;SDS011;6149;52.418;13.668;2022-12-24T07:16:18;13.67;;;9.10;;
12171;SDS011;6149;52.418;13.668;2022-12-24T07:18:45;16.97;;;10.97;;
12171;SDS011;6149;52.418;13.668;2022-12-24T07:21:13;17.10;;;11.33;;
12171;SDS011;6149;52.418;13.668;2022-12-24T07:23:39;16.70;;;11.07;;
12171;SDS011;6149;52.418;13.668;2022-12-24T07:26:06;15.77;;;10.00;;
12171;SDS011;6149;52.418;13.668;2022-12-24T07:28:35;19.07;;;11.17;;
12171;SDS011;6149;52.418;13.668;2022-12-24T07:31:02;17.50;;;10.93;;
12171;SDS011;6149;52.418;13.668;2022-12-24T07:33:30;21.03;;;12.23;;
12171;SDS011;6149;52.418;13.668;2022-12-24T07:35:58;16.60;;;10.17;;
12171;SDS011;6149;52.418;13.668;2022-12-24T07:38:26;17.03;;;11.70;;
12171;SDS011;6149;52.418;13.668;2022-12-24T07:40:54;18.20;;;11.10;;
12171;SDS011;6149;52.418;13.668;2022-12-24T07:43:22;14.73;;;10.13;;
12171;SDS011;6149;52.418;13.668;2022-12-24T07:45:49;13.80;;;9.57;;
12171;SDS011;6149;52.418;13.668;2022-12-24T07:48:16;15.80;;;10.83;;
12171;SDS011;6149;52.418;13.668;2022-12-24T07:50:44;18.20;;;11.00;;
12171;SDS011;6149;52.418;13.668;2022-12-24T07:53:11;17.47;;;10.77;;
12171;SDS011;6149;52.418;13.668;2022-12-24T07:55:37;18.17;;;11.03;;
12171;SDS011;6149;52.418;13.668;2022-12-24T07:58:04;16.20;;;10.90;;
12171;SDS011;6149;52.418;13.668;2022-12-24T08:00:31;17.93;;;11.67;;
12171;SDS011;6149;52.418;13.668;2022-12-24T08:02:58;18.63;;;10.53;;
12171;SDS011;6149;52.418;13.668;2022-12-24T08:05:25;18.53;;;10.47;;
12171;SDS011;6149;52.418;13.668;2022-12-24T08:07:53;17.67;;;10.23;;
12171;SDS011;6149;52.418;13.668;2022-12-24T08:10:20;16.87;;;10.83;;
12171;SDS011;6149;52.418;13.668;2022-12-24T08:12:47;20.70;;;12.57;;
12171;SDS011;6149;52.418;13.668;2022-12-24T08:15:14;17.30;;;11.13;;
12171;SDS011;6149;52.418;13.668;2022-12-24T08:17:42;20.90;;;12.63;;
12171;SDS011;6149;52.418;13.668;2022-12-24T08:20:09;15.40;;;9.53;;
12171;SDS011;6149;52.418;13.668;2022-12-24T08:22:36;21.47;;;12.40;;
12171;SDS011;6149;52.418;13.668;2022-12-24T08:25:05;16.07;;;10.13;;
12171;SDS011;6149;52.418;13.668;2022-12-24T08:27:33;22.23;;;12.27;;
12171;SDS011;6149;52.418;13.668;2022-12-24T08:30:00;19.60;;;11.70;;
12171;SDS011;6149;52.418;13.668;2022-12-24T08:32:27;19.70;;;12.00;;
12171;SDS011;6149;52.418;13.668;2022-12-24T08:34:54;18.93;;;11.70;;
12171;SDS011;6149;52.418;13.668;2022-12-24T08:37:20;22.67;;;14.03;;
12171;SDS011;6149;52.418;13.668;2022-12-24T08:39:48;24.17;;;13.67;;
12171;SDS011;6149;52.418;13.668;2022-12-24T08:42:16;25.90;;;14.77;;
12171;SDS011;6149;52.418;13.668;2022-12-24T08:44:43;23.80;;;13.60;;
12171;SDS011;6149;52.418;13.668;2022-12-24T08:47:10;28.30;;;16.27;;
12171;SDS011;6149;52.418;13.668;2022-12-24T08:49:37;28.63;;;18.00;;
12171;SDS011;6149;52.418;13.668;2022-12-24T08:52:04;25.27;;;15.50;;
12171;SDS011;6149;52.418;13.668;2022-12-24T08:54:31;28.27;;;15.90;;
12171;SDS011;6149;52.418;13.668;2022-12-24T08:56:58;26.43;;;15.97;;
12171;SDS011;6149;52.418;13.668;2022-12-24T08:59:26;22.23;;;14.03;;
12171;SDS011;6149;52.418;13.668;2022-12-24T09:01:53;20.23;;;12.80;;
12171;SDS011;6149;52.418;13.668;2022-12-24T09:04:20;18.10;;;12.10;;
12171;SDS011;6149;52.418;13.668;2022-12-24T09:06:47;23.90;;;13.83;;
12171;SDS011;6149;52.418;13.668;2022-12-24T09:09:13;25.10;;;14.37;;
12171;SDS011;6149;52.418;13.668;2022-12-24T09:11:40;24.30;;;13.93;;
12171;SDS011;6149;52.418;13.668;2022-12-24T09:14:07;19.47;;;12.40;;
12171;SDS011;6149;52.418;13.668;2022-12-24T09:16:36;22.00;;;12.87;;
12171;SDS011;6149;52.418;13.668;2022-12-24T09:19:02;27.07;;;13.90;;
12171;SDS011;6149;52.418;13.668;2022-12-24T09:21:29;24.33;;;12.97;;
12171;SDS011;6149;52.418;13.668;2022-12-24T09:23:56;20.80;;;12.97;;
12171;SDS011;6149;52.418;13.668;2022-12-24T09:26:25;21.63;;;13.60;;
12171;SDS011;6149;52.418;13.668;2022-12-24T09:28:54;21.53;;;12.87;;
12171;SDS011;6149;52.418;13.668;2022-12-24T09:31:22;19.77;;;12.20;;
12171;SDS011;6149;52.418;13.668;2022-12-24T09:33:50;26.90;;;12.50;;
12171;SDS011;6149;52.418;13.668;2022-12-24T09:36:17;22.00;;;12.83;;
12171;SDS011;6149;52.418;13.668;2022-12-24T09:38:45;23.80;;;13.80;;
12171;SDS011;6149;52.418;13.668;2022-12-24T09:41:13;18.23;;;11.70;;
12171;SDS011;6149;52.418;13.668;2022-12-24T09:43:54;24.90;;;13.37;;
12171;SDS011;6149;52.418;13.668;2022-12-24T09:46:25;18.00;;;11.03;;
12171;SDS011;6149;52.418;13.668;2022-12-24T09:49:00;21.03;;;11.93;;
12171;SDS011;6149;52.418;13.668;2022-12-24T09:51:30;27.93;;;13.23;;
12171;SDS011;6149;52.418;13.668;2022-12-24T09:54:05;22.00;;;13.10;;
12171;SDS011;6149;52.418;13.668;2022-12-24T09:56:39;19.80;;;12.00;;
12171;SDS011;6149;52.418;13.668;2022-12-24T09:59:10;23.80;;;13.50;;
12171;SDS011;6149;52.418;13.668;2022-12-24T10:01:40;19.80;;;12.40;;
12171;SDS011;6149;52.418;13.668;2022-12-24T10:04:10;22.43;;;13.00;;
12171;SDS011;6149;52.418;13.668;2022-12-24T10:06:43;21.30;;;12.77;;
12171;SDS011;6149;52.418;13.668;2022-12-24T10:09:18;24.77;;;13.50;;
12171;SDS011;6149;52.418;13.668;2022-12-24T10:11:55;25.10;;;13.83;;
12171;SDS011;6149;52.418;13.668;2022-12-24T10:14:36;22.70;;;13.17;;
12171;SDS011;6149;52.418;13.668;2022-12-24T10:17:26;27.73;;;15.73;;
12171;SDS011;6149;52.418;13.668;2022-12-24T10:23:00;25.53;;;16.13;;
12171;SDS011;6149;52.418;13.668;2022-12-24T10:25:33;25.67;;;15.63;;
12171;SDS011;6149;52.418;13.668;2022-12-24T10:28:12;24.63;;;14.80;;
12171;SDS011;6149;52.418;13.668;2022-12-24T10:30:42;24.73;;;15.27;;
12171;SDS011;6149;52.418;13.668;2022-12-24T10:33:14;28.33;;;17.30;;
12171;SDS011;6149;52.418;13.668;2022-12-24T10:35:47;22.87;;;14.03;;
12171;SDS011;6149;52.418;13.668;2022-12-24T10:38:19;26.47;;;14.87;;
12171;SDS011;6149;52.418;13.668;2022-12-24T10:40:47;23.60;;;14.70;;
12171;SDS011;6149;52.418;13.668;2022-12-24T10:43:17;19.70;;;12.77;;
12171;SDS011;6149;52.418;13.668;2022-12-24T10:45:46;24.23;;;13.90;;
12171;SDS011;6149;52.418;13.668;2022-12-24T10:48:19;21.13;;;13.27;;
12171;SDS011;6149;52.418;13.668;2022-12-24T10:50:53;25.77;;;14.87;;
12171;SDS011;6149;52.418;13.668;2022-12-24T10:53:30;23.40;;;13.87;;
12171;SDS011;6149;52.418;13.668;2022-12-24T10:56:04;22.00;;;13.73;;
12171;SDS011;6149;52.418;13.668;2022-12-24T10:58:33;23.87;;;13.97;;
12171;SDS011;6149;52.418;13.668;2022-12-24T11:01:01;20.67;;;13.20;;
12171;SDS011;6149;52.418;13.668;2022-12-24T11:03:29;21.47;;;13.73;;
12171;SDS011;6149;52.418;13.668;2022-12-24T11:08:45;24.83;;;13.83;;
12171;SDS011;6149;52.418;13.668;2022-12-24T11:11:13;28.63;;;18.33;;
12171;SDS011;6149;52.418;13.668;2022-12-24T11:13:44;20.50;;;13.73;;
12171;SDS011;6149;52.418;13.668;2022-12-24T11:16:20;20.77;;;12.80;;
12171;SDS011;6149;52.418;13.668;2022-12-24T11:18:51;20.03;;;12.27;;
12171;SDS011;6149;52.418;13.668;2022-12-24T11:21:23;22.60;;;13.43;;
12171;SDS011;6149;52.418;13.668;2022-12-24T11:23:53;19.07;;;12.33;;
12171;SDS011;6149;52.418;13.668;2022-12-24T11:26:24;20.43;;;12.67;;
12171;SDS011;6149;52.418;13.668;2022-12-24T11:29:02;19.57;;;12.07;;
12171;SDS011;6149;52.418;13.668;2022-12-24T11:31:38;17.70;;;11.70;;
12171;SDS011;6149;52.418;13.668;2022-12-24T11:34:22;15.67;;;10.40;;
12171;SDS011;6149;52.418;13.668;2022-12-24T11:36:54;15.80;;;9.83;;
12171;SDS011;6149;52.418;13.668;2022-12-24T11:39:37;14.67;;;10.20;;
12171;SDS011;6149;52.418;13.668;2022-12-24T11:42:06;16.17;;;10.80;;
12171;SDS011;6149;52.418;13.668;2022-12-24T11:44:48;16.60;;;10.40;;
12171;SDS011;6149;52.418;13.668;2022-12-24T11:47:16;15.97;;;9.83;;
12171;SDS011;6149;52.418;13.668;2022-12-24T11:49:42;13.43;;;9.63;;
12171;SDS011;6149;52.418;13.668;2022-12-24T11:52:13;15.10;;;10.17;;
12171;SDS011;6149;52.418;13.668;2022-12-24T11:54:50;14.03;;;9.43;;
12171;SDS011;6149;52.418;13.668;2022-12-24T11:57:38;13.07;;;9.17;;
12171;SDS011;6149;52.418;13.668;2022-12-24T12:00:13;11.37;;;8.47;;
12171;SDS011;6149;52.418;13.668;2022-12-24T12:02:41;13.70;;;9.40;;
12171;SDS011;6149;52.418;13.668;2022-12-24T12:05:12;16.70;;;9.80;;
12171;SDS011;6149;52.418;13.668;2022-12-24T12:07:45;13.07;;;9.30;;
12171;SDS011;6149;52.418;13.668;2022-12-24T12:10:17;11.67;;;8.93;;
12171;SDS011;6149;52.418;13.668;2022-12-24T12:12:49;14.97;;;8.83;;
12171;SDS011;6149;52.418;13.668;2022-12-24T12:15:23;14.47;;;9.27;;
12171;SDS011;6149;52.418;13.668;2022-12-24T12:17:55;12.80;;;8.70;;
12171;SDS011;6149;52.418;13.668;2022-12-24T12:20:30;11.70;;;8.50;;
12171;SDS011;6149;52.418;13.668;2022-12-24T12:23:04;10.43;;;8.53;;
12171;SDS011;6149;52.418;13.668;2022-12-24T12:25:41;12.87;;;8.03;;
12171;SDS011;6149;52.418;13.668;2022-12-24T12:28:14;13.87;;;9.30;;
12171;SDS011;6149;52.418;13.668;2022-12-24T12:30:53;12.37;;;8.40;;
12171;SDS011;6149;52.418;13.668;2022-12-24T12:33:29;11.53;;;8.77;;
12171;SDS011;6149;52.418;13.668;2022-12-24T12:36:01;10.90;;;8.77;;
12171;SDS011;6149;52.418;13.668;2022-12-24T12:38:33;12.57;;;8.80;;
12171;SDS011;6149;52.418;13.668;2022-12-24T12:41:00;12.03;;;9.40;;
12171;SDS011;6149;52.418;13.668;2022-12-24T12:43:55;11.17;;;8.50;;
12171;SDS011;6149;52.418;13.668;2022-12-24T12:46:45;11.97;;;8.87;;
12171;SDS011;6149;52.418;13.668;2022-12-24T12:49:31;20.87;;;15.80;;
12171;SDS011;6149;52.418;13.668;2022-12-24T12:52:11;16.60;;;14.10;;
12171;SDS011;6149;52.418;13.668;2022-12-24T12:54:53;15.43;;;10.53;;
12171;SDS011;6149;52.418;13.668;2022-12-24T12:57:32;11.07;;;8.80;;
12171;SDS011;6149;52.418;13.668;2022-12-24T13:00:03;16.50;;;12.30;;
12171;SDS011;6149;52.418;13.668;2022-12-24T13:02:41;14.10;;;11.80;;
12171;SDS011;6149;52.418;13.668;2022-12-24T13:08:55;15.90;;;13.33;;
12171;SDS011;6149;52.418;13.668;2022-12-24T13:11:52;12.83;;;10.50;;
12171;SDS011;6149;52.418;13.668;2022-12-24T13:15:01;15.27;;;11.93;;
12171;SDS011;6149;52.418;13.668;2022-12-24T13:18:18;15.27;;;10.63;;
12171;SDS011;6149;52.418;13.668;2022-12-24T13:21:04;13.03;;;8.27;;
12171;SDS011;6149;52.418;13.668;2022-12-24T13:23:43;15.63;;;10.70;;
12171;SDS011;6149;52.418;13.668;2022-12-24T13:26:10;14.13;;;10.77;;
12171;SDS011;6149;52.418;13.668;2022-12-24T13:28:40;17.40;;;11.53;;
12171;SDS011;6149;52.418;13.668;2022-12-24T13:31:23;19.63;;;11.60;;
12171;SDS011;6149;52.418;13.668;2022-12-24T13:33:56;19.43;;;10.70;;
12171;SDS011;6149;52.418;13.668;2022-12-24T13:39:35;13.80;;;8.57;;
12171;SDS011;6149;52.418;13.668;2022-12-24T13:45:46;10.47;;;7.03;;
12171;SDS011;6149;52.418;13.668;2022-12-24T13:48:26;10.17;;;7.50;;
12171;SDS011;6149;52.418;13.668;2022-12-24T13:50:57;12.90;;;8.83;;
12171;SDS011;6149;52.418;13.668;2022-12-24T13:53:27;17.20;;;11.00;;
12171;SDS011;6149;52.418;13.668;2022-12-24T13:56:00;14.40;;;10.60;;
12171;SDS011;6149;52.418;13.668;2022-12-24T13:58:32;13.80;;;9.33;;
12171;SDS011;6149;52.418;13.668;2022-12-24T14:01:05;12.00;;;9.73;;
12171;SDS011;6149;52.418;13.668;2022-12-24T14:03:36;15.43;;;11.43;;
12171;SDS011;6149;52.418;13.668;2022-12-24T14:06:09;15.20;;;10.67;;
12171;SDS011;6149;52.418;13.668;2022-12-24T14:08:39;13.63;;;10.67;;
12171;SDS011;6149;52.418;13.668;2022-12-24T14:11:10;14.03;;;10.20;;
12171;SDS011;6149;52.418;13.668;2022-12-24T14:13:50;24.40;;;11.63;;
12171;SDS011;6149;52.418;13.668;2022-12-24T14:16:55;21.67;;;10.33;;
12171;SDS011;6149;52.418;13.668;2022-12-24T14:19:27;16.67;;;9.27;;
12171;SDS011;6149;52.418;13.668;2022-12-24T14:22:00;23.40;;;8.90;;
12171;SDS011;6149;52.418;13.668;2022-12-24T14:24:30;24.53;;;8.20;;
12171;SDS011;6149;52.418;13.668;2022-12-24T14:27:05;21.70;;;8.53;;
12171;SDS011;6149;52.418;13.668;2022-12-24T14:29:49;22.97;;;8.17;;
12171;SDS011;6149;52.418;13.668;2022-12-24T14:32:32;23.53;;;8.40;;
12171;SDS011;6149;52.418;13.668;2022-12-24T14:35:07;23.57;;;8.60;;
12171;SDS011;6149;52.418;13.668;2022-12-24T14:37:45;15.27;;;7.83;;
12171;SDS011;6149;52.418;13.668;2022-12-24T14:40:14;13.33;;;6.50;;
12171;SDS011;6149;52.418;13.668;2022-12-24T14:42:46;19.73;;;7.23;;
12171;SDS011;6149;52.418;13.668;2022-12-24T14:45:25;17.67;;;7.30;;
12171;SDS011;6149;52.418;13.668;2022-12-24T14:48:01;16.40;;;7.40;;
12171;SDS011;6149;52.418;13.668;2022-12-24T14:50:41;24.33;;;9.30;;
12171;SDS011;6149;52.418;13.668;2022-12-24T14:53:22;16.17;;;7.70;;
12171;SDS011;6149;52.418;13.668;2022-12-24T14:56:08;15.93;;;8.60;;
12171;SDS011;6149;52.418;13.668;2022-12-24T14:58:39;11.93;;;7.30;;
12171;SDS011;6149;52.418;13.668;2022-12-24T15:01:19;19.07;;;9.50;;
12171;SDS011;6149;52.418;13.668;2022-12-24T15:04:03;14.13;;;9.03;;
12171;SDS011;6149;52.418;13.668;2022-12-24T15:06:41;12.27;;;8.10;;
12171;SDS011;6149;52.418;13.668;2022-12-24T15:09:16;17.67;;;9.57;;